<?xml version="1.0" encoding="UTF-8" standalone="no" ?>
<gpx xmlns="http://www.topografix.com/GPX/1/1" creator="MapSource 6.11.6" version="1.1" xmlns:xsi="http://www.w3.org/2001/XMLSchema-instance" xsi:schemaLocation="http://www.topografix.com/GPX/1/1 http://www.topografix.com/GPX/1/1/gpx.xsd">

  <metadata>
    <link href="http://www.garmin.com">
      <text>Garmin International</text>
    </link>
    <time>2009-07-19T14:46:41Z</time>
    <bounds maxlat="50.592675" maxlon="6.500430" minlat="50.574599" minlon="6.475541"/>
  </metadata>

  <trk>
    <name>Gemünd - Kermeter - Wolfgarten RW</name>
    <extensions>
      <gpxx:TrackExtension xmlns:gpxx="http://www.garmin.com/xmlschemas/GpxExtensions/v3" xmlns:xsi="http://www.w3.org/2001/XMLSchema-instance" xsi:schemaLocation="http://www.garmin.com/xmlschemas/GpxExtensions/v3 http://www.garmin.com/xmlschemas/GpxExtensions/v3/GpxExtensionsv3.xsd">
        <gpxx:DisplayColor>White</gpxx:DisplayColor>
      </gpxx:TrackExtension>
    </extensions>
    <trkseg>
      <trkpt lat="50.574599" lon="6.497574">
        <ele>341.900000</ele>
        <time>2009-07-19T16:45:18Z</time>
      </trkpt>
      <trkpt lat="50.574788" lon="6.497496">
        <ele>340.900000</ele>
        <time>2009-07-19T16:45:41Z</time>
      </trkpt>
      <trkpt lat="50.574955" lon="6.497463">
        <ele>340.900000</ele>
        <time>2009-07-19T16:46:01Z</time>
      </trkpt>
      <trkpt lat="50.575088" lon="6.497254">
        <ele>340.900000</ele>
        <time>2009-07-19T16:46:24Z</time>
      </trkpt>
      <trkpt lat="50.575231" lon="6.497060">
        <ele>340.900000</ele>
        <time>2009-07-19T16:46:46Z</time>
      </trkpt>
      <trkpt lat="50.575374" lon="6.496846">
        <ele>340.400000</ele>
        <time>2009-07-19T16:47:10Z</time>
      </trkpt>
      <trkpt lat="50.575508" lon="6.496715">
        <ele>340.900000</ele>
        <time>2009-07-19T16:47:29Z</time>
      </trkpt>
      <trkpt lat="50.575678" lon="6.496535">
        <ele>340.900000</ele>
        <time>2009-07-19T16:47:53Z</time>
      </trkpt>
      <trkpt lat="50.575772" lon="6.496566">
        <ele>340.900000</ele>
        <time>2009-07-19T16:48:05Z</time>
      </trkpt>
      <trkpt lat="50.576074" lon="6.496678">
        <ele>340.900000</ele>
        <time>2009-07-19T16:48:42Z</time>
      </trkpt>
      <trkpt lat="50.576149" lon="6.496620">
        <ele>340.000000</ele>
        <time>2009-07-19T16:48:52Z</time>
      </trkpt>
      <trkpt lat="50.576216" lon="6.496432">
        <ele>337.600000</ele>
        <time>2009-07-19T16:49:08Z</time>
      </trkpt>
      <trkpt lat="50.576382" lon="6.496446">
        <ele>339.000000</ele>
        <time>2009-07-19T16:49:29Z</time>
      </trkpt>
      <trkpt lat="50.576559" lon="6.496445">
        <ele>339.000000</ele>
        <time>2009-07-19T16:49:50Z</time>
      </trkpt>
      <trkpt lat="50.576665" lon="6.496551">
        <ele>339.000000</ele>
        <time>2009-07-19T16:50:05Z</time>
      </trkpt>
      <trkpt lat="50.576820" lon="6.496671">
        <ele>341.900000</ele>
        <time>2009-07-19T16:50:25Z</time>
      </trkpt>
      <trkpt lat="50.576842" lon="6.496770">
        <ele>342.800000</ele>
        <time>2009-07-19T16:50:33Z</time>
      </trkpt>
      <trkpt lat="50.576820" lon="6.496824">
        <ele>342.400000</ele>
        <time>2009-07-19T16:50:38Z</time>
      </trkpt>
      <trkpt lat="50.576796" lon="6.497007">
        <ele>342.800000</ele>
        <time>2009-07-19T16:50:53Z</time>
      </trkpt>
      <trkpt lat="50.576805" lon="6.497105">
        <ele>342.800000</ele>
        <time>2009-07-19T16:51:00Z</time>
      </trkpt>
      <trkpt lat="50.576850" lon="6.497270">
        <ele>345.300000</ele>
        <time>2009-07-19T16:51:14Z</time>
      </trkpt>
      <trkpt lat="50.576899" lon="6.497451">
        <ele>346.700000</ele>
        <time>2009-07-19T16:51:29Z</time>
      </trkpt>
      <trkpt lat="50.576811" lon="6.497564">
        <ele>347.200000</ele>
        <time>2009-07-19T16:51:42Z</time>
      </trkpt>
      <trkpt lat="50.576759" lon="6.497687">
        <ele>346.700000</ele>
        <time>2009-07-19T16:51:54Z</time>
      </trkpt>
      <trkpt lat="50.576751" lon="6.497783">
        <ele>347.200000</ele>
        <time>2009-07-19T16:52:01Z</time>
      </trkpt>
      <trkpt lat="50.576749" lon="6.497834">
        <ele>347.200000</ele>
        <time>2009-07-19T16:52:05Z</time>
      </trkpt>
      <trkpt lat="50.576806" lon="6.498069">
        <ele>349.100000</ele>
        <time>2009-07-19T16:52:24Z</time>
      </trkpt>
      <trkpt lat="50.576882" lon="6.498286">
        <ele>352.500000</ele>
        <time>2009-07-19T16:52:43Z</time>
      </trkpt>
      <trkpt lat="50.576933" lon="6.498489">
        <ele>353.400000</ele>
        <time>2009-07-19T16:53:00Z</time>
      </trkpt>
      <trkpt lat="50.576930" lon="6.498835">
        <ele>354.900000</ele>
        <time>2009-07-19T16:53:26Z</time>
      </trkpt>
      <trkpt lat="50.577005" lon="6.498937">
        <ele>355.800000</ele>
        <time>2009-07-19T16:53:38Z</time>
      </trkpt>
      <trkpt lat="50.577024" lon="6.498980">
        <ele>355.800000</ele>
        <time>2009-07-19T16:53:42Z</time>
      </trkpt>
      <trkpt lat="50.577288" lon="6.498934">
        <ele>357.700000</ele>
        <time>2009-07-19T16:54:14Z</time>
      </trkpt>
      <trkpt lat="50.577378" lon="6.498879">
        <ele>357.700000</ele>
        <time>2009-07-19T16:54:25Z</time>
      </trkpt>
      <trkpt lat="50.577502" lon="6.498831">
        <ele>358.200000</ele>
        <time>2009-07-19T16:54:41Z</time>
      </trkpt>
      <trkpt lat="50.577580" lon="6.498823">
        <ele>358.200000</ele>
        <time>2009-07-19T16:54:50Z</time>
      </trkpt>
      <trkpt lat="50.577695" lon="6.498770">
        <ele>359.200000</ele>
        <time>2009-07-19T16:55:04Z</time>
      </trkpt>
      <trkpt lat="50.577728" lon="6.498743">
        <ele>358.700000</ele>
        <time>2009-07-19T16:55:09Z</time>
      </trkpt>
      <trkpt lat="50.577784" lon="6.498611">
        <ele>360.600000</ele>
        <time>2009-07-19T16:55:21Z</time>
      </trkpt>
      <trkpt lat="50.577882" lon="6.498498">
        <ele>360.600000</ele>
        <time>2009-07-19T16:55:35Z</time>
      </trkpt>
      <trkpt lat="50.577969" lon="6.498456">
        <ele>361.100000</ele>
        <time>2009-07-19T16:55:46Z</time>
      </trkpt>
      <trkpt lat="50.578174" lon="6.498483">
        <ele>361.100000</ele>
        <time>2009-07-19T16:56:11Z</time>
      </trkpt>
      <trkpt lat="50.578176" lon="6.498491">
        <ele>361.100000</ele>
        <time>2009-07-19T16:56:12Z</time>
      </trkpt>
      <trkpt lat="50.578191" lon="6.498435">
        <ele>362.100000</ele>
        <time>2009-07-19T16:56:16Z</time>
      </trkpt>
      <trkpt lat="50.578433" lon="6.498315">
        <ele>364.500000</ele>
        <time>2009-07-19T16:56:47Z</time>
      </trkpt>
      <trkpt lat="50.578451" lon="6.498290">
        <ele>364.500000</ele>
        <time>2009-07-19T16:56:50Z</time>
      </trkpt>
      <trkpt lat="50.578500" lon="6.498215">
        <ele>364.500000</ele>
        <time>2009-07-19T16:56:58Z</time>
      </trkpt>
      <trkpt lat="50.578586" lon="6.498075">
        <ele>365.000000</ele>
        <time>2009-07-19T16:57:13Z</time>
      </trkpt>
      <trkpt lat="50.578623" lon="6.498001">
        <ele>365.400000</ele>
        <time>2009-07-19T16:57:20Z</time>
      </trkpt>
      <trkpt lat="50.578679" lon="6.497882">
        <ele>365.900000</ele>
        <time>2009-07-19T16:57:31Z</time>
      </trkpt>
      <trkpt lat="50.578694" lon="6.497860">
        <ele>366.400000</ele>
        <time>2009-07-19T16:57:33Z</time>
      </trkpt>
      <trkpt lat="50.578757" lon="6.497756">
        <ele>367.400000</ele>
        <time>2009-07-19T16:57:44Z</time>
      </trkpt>
      <trkpt lat="50.578808" lon="6.497727">
        <ele>368.300000</ele>
        <time>2009-07-19T16:57:51Z</time>
      </trkpt>
      <trkpt lat="50.578995" lon="6.497724">
        <ele>369.800000</ele>
        <time>2009-07-19T16:58:13Z</time>
      </trkpt>
      <trkpt lat="50.579058" lon="6.497693">
        <ele>370.200000</ele>
        <time>2009-07-19T16:58:21Z</time>
      </trkpt>
      <trkpt lat="50.579205" lon="6.497656">
        <ele>371.700000</ele>
        <time>2009-07-19T16:58:39Z</time>
      </trkpt>
      <trkpt lat="50.579378" lon="6.497643">
        <ele>372.600000</ele>
        <time>2009-07-19T16:59:00Z</time>
      </trkpt>
      <trkpt lat="50.579485" lon="6.497665">
        <ele>373.100000</ele>
        <time>2009-07-19T16:59:13Z</time>
      </trkpt>
      <trkpt lat="50.579568" lon="6.497666">
        <ele>373.600000</ele>
        <time>2009-07-19T16:59:23Z</time>
      </trkpt>
      <trkpt lat="50.579625" lon="6.497633">
        <ele>375.100000</ele>
        <time>2009-07-19T16:59:30Z</time>
      </trkpt>
      <trkpt lat="50.579746" lon="6.497655">
        <ele>376.000000</ele>
        <time>2009-07-19T16:59:45Z</time>
      </trkpt>
      <trkpt lat="50.579855" lon="6.497676">
        <ele>377.000000</ele>
        <time>2009-07-19T16:59:58Z</time>
      </trkpt>
      <trkpt lat="50.579985" lon="6.497690">
        <ele>377.900000</ele>
        <time>2009-07-19T17:00:13Z</time>
      </trkpt>
      <trkpt lat="50.580198" lon="6.497653">
        <ele>379.900000</ele>
        <time>2009-07-19T17:00:39Z</time>
      </trkpt>
      <trkpt lat="50.580278" lon="6.497632">
        <ele>380.300000</ele>
        <time>2009-07-19T17:00:49Z</time>
      </trkpt>
      <trkpt lat="50.580408" lon="6.497587">
        <ele>381.300000</ele>
        <time>2009-07-19T17:01:05Z</time>
      </trkpt>
      <trkpt lat="50.580420" lon="6.497582">
        <ele>381.300000</ele>
        <time>2009-07-19T17:01:06Z</time>
      </trkpt>
      <trkpt lat="50.580548" lon="6.497534">
        <ele>382.300000</ele>
        <time>2009-07-19T17:01:22Z</time>
      </trkpt>
      <trkpt lat="50.580666" lon="6.497494">
        <ele>383.200000</ele>
        <time>2009-07-19T17:01:37Z</time>
      </trkpt>
      <trkpt lat="50.580718" lon="6.497485">
        <ele>383.200000</ele>
        <time>2009-07-19T17:01:43Z</time>
      </trkpt>
      <trkpt lat="50.580825" lon="6.497510">
        <ele>384.200000</ele>
        <time>2009-07-19T17:01:56Z</time>
      </trkpt>
      <trkpt lat="50.581006" lon="6.497485">
        <ele>385.600000</ele>
        <time>2009-07-19T17:02:18Z</time>
      </trkpt>
      <trkpt lat="50.581019" lon="6.497404">
        <ele>387.100000</ele>
        <time>2009-07-19T17:02:24Z</time>
      </trkpt>
      <trkpt lat="50.581096" lon="6.497360">
        <ele>387.500000</ele>
        <time>2009-07-19T17:02:34Z</time>
      </trkpt>
      <trkpt lat="50.581252" lon="6.497347">
        <ele>389.000000</ele>
        <time>2009-07-19T17:02:53Z</time>
      </trkpt>
      <trkpt lat="50.581401" lon="6.497350">
        <ele>390.000000</ele>
        <time>2009-07-19T17:03:10Z</time>
      </trkpt>
      <trkpt lat="50.581502" lon="6.497364">
        <ele>390.400000</ele>
        <time>2009-07-19T17:03:23Z</time>
      </trkpt>
      <trkpt lat="50.581554" lon="6.497425">
        <ele>390.400000</ele>
        <time>2009-07-19T17:03:30Z</time>
      </trkpt>
      <trkpt lat="50.581603" lon="6.497463">
        <ele>390.900000</ele>
        <time>2009-07-19T17:03:37Z</time>
      </trkpt>
      <trkpt lat="50.581693" lon="6.497535">
        <ele>391.900000</ele>
        <time>2009-07-19T17:03:49Z</time>
      </trkpt>
      <trkpt lat="50.581785" lon="6.497638">
        <ele>392.400000</ele>
        <time>2009-07-19T17:04:03Z</time>
      </trkpt>
      <trkpt lat="50.581782" lon="6.497691">
        <ele>395.700000</ele>
        <time>2009-07-19T17:04:07Z</time>
      </trkpt>
      <trkpt lat="50.581781" lon="6.497700">
        <ele>392.800000</ele>
        <time>2009-07-19T17:04:07Z</time>
      </trkpt>
      <trkpt lat="50.581872" lon="6.497728">
        <ele>391.900000</ele>
        <time>2009-07-19T17:04:18Z</time>
      </trkpt>
      <trkpt lat="50.581936" lon="6.497754">
        <ele>394.800000</ele>
        <time>2009-07-19T17:04:26Z</time>
      </trkpt>
      <trkpt lat="50.582076" lon="6.497883">
        <ele>394.800000</ele>
        <time>2009-07-19T17:04:46Z</time>
      </trkpt>
      <trkpt lat="50.582172" lon="6.497999">
        <ele>396.200000</ele>
        <time>2009-07-19T17:05:00Z</time>
      </trkpt>
      <trkpt lat="50.582219" lon="6.498088">
        <ele>397.200000</ele>
        <time>2009-07-19T17:05:09Z</time>
      </trkpt>
      <trkpt lat="50.582323" lon="6.498199">
        <ele>398.600000</ele>
        <time>2009-07-19T17:05:24Z</time>
      </trkpt>
      <trkpt lat="50.582382" lon="6.498269">
        <ele>399.600000</ele>
        <time>2009-07-19T17:05:33Z</time>
      </trkpt>
      <trkpt lat="50.582476" lon="6.498366">
        <ele>400.500000</ele>
        <time>2009-07-19T17:05:46Z</time>
      </trkpt>
      <trkpt lat="50.582576" lon="6.498506">
        <ele>402.000000</ele>
        <time>2009-07-19T17:06:02Z</time>
      </trkpt>
      <trkpt lat="50.582654" lon="6.498610">
        <ele>402.900000</ele>
        <time>2009-07-19T17:06:15Z</time>
      </trkpt>
      <trkpt lat="50.582803" lon="6.498712">
        <ele>406.800000</ele>
        <time>2009-07-19T17:06:34Z</time>
      </trkpt>
      <trkpt lat="50.582839" lon="6.498769">
        <ele>407.700000</ele>
        <time>2009-07-19T17:06:40Z</time>
      </trkpt>
      <trkpt lat="50.582851" lon="6.498799">
        <ele>409.200000</ele>
        <time>2009-07-19T17:06:43Z</time>
      </trkpt>
      <trkpt lat="50.582920" lon="6.498926">
        <ele>411.100000</ele>
        <time>2009-07-19T17:06:56Z</time>
      </trkpt>
      <trkpt lat="50.582978" lon="6.498988">
        <ele>413.000000</ele>
        <time>2009-07-19T17:07:04Z</time>
      </trkpt>
      <trkpt lat="50.583040" lon="6.499030">
        <ele>414.900000</ele>
        <time>2009-07-19T17:07:12Z</time>
      </trkpt>
      <trkpt lat="50.583095" lon="6.499124">
        <ele>416.900000</ele>
        <time>2009-07-19T17:07:22Z</time>
      </trkpt>
      <trkpt lat="50.583179" lon="6.499243">
        <ele>419.800000</ele>
        <time>2009-07-19T17:07:36Z</time>
      </trkpt>
      <trkpt lat="50.583254" lon="6.499329">
        <ele>420.700000</ele>
        <time>2009-07-19T17:07:47Z</time>
      </trkpt>
      <trkpt lat="50.583315" lon="6.499413">
        <ele>421.700000</ele>
        <time>2009-07-19T17:07:56Z</time>
      </trkpt>
      <trkpt lat="50.583397" lon="6.499533">
        <ele>423.100000</ele>
        <time>2009-07-19T17:08:10Z</time>
      </trkpt>
      <trkpt lat="50.583461" lon="6.499635">
        <ele>424.600000</ele>
        <time>2009-07-19T17:08:21Z</time>
      </trkpt>
      <trkpt lat="50.583529" lon="6.499726">
        <ele>426.500000</ele>
        <time>2009-07-19T17:08:31Z</time>
      </trkpt>
      <trkpt lat="50.583634" lon="6.499863">
        <ele>428.400000</ele>
        <time>2009-07-19T17:08:48Z</time>
      </trkpt>
      <trkpt lat="50.583719" lon="6.499974">
        <ele>429.800000</ele>
        <time>2009-07-19T17:09:01Z</time>
      </trkpt>
      <trkpt lat="50.583812" lon="6.500090">
        <ele>431.800000</ele>
        <time>2009-07-19T17:09:15Z</time>
      </trkpt>
      <trkpt lat="50.583897" lon="6.500178">
        <ele>433.200000</ele>
        <time>2009-07-19T17:09:27Z</time>
      </trkpt>
      <trkpt lat="50.583962" lon="6.500281">
        <ele>435.100000</ele>
        <time>2009-07-19T17:09:38Z</time>
      </trkpt>
      <trkpt lat="50.584057" lon="6.500399">
        <ele>438.000000</ele>
        <time>2009-07-19T17:09:53Z</time>
      </trkpt>
      <trkpt lat="50.584102" lon="6.500430">
        <ele>439.000000</ele>
        <time>2009-07-19T17:09:59Z</time>
      </trkpt>
      <trkpt lat="50.584109" lon="6.500317">
        <ele>440.900000</ele>
        <time>2009-07-19T17:10:08Z</time>
      </trkpt>
      <trkpt lat="50.584107" lon="6.500092">
        <ele>441.900000</ele>
        <time>2009-07-19T17:10:25Z</time>
      </trkpt>
      <trkpt lat="50.584070" lon="6.499905">
        <ele>444.300000</ele>
        <time>2009-07-19T17:10:40Z</time>
      </trkpt>
      <trkpt lat="50.584078" lon="6.499758">
        <ele>445.700000</ele>
        <time>2009-07-19T17:10:51Z</time>
      </trkpt>
      <trkpt lat="50.584062" lon="6.499648">
        <ele>447.200000</ele>
        <time>2009-07-19T17:10:59Z</time>
      </trkpt>
      <trkpt lat="50.584028" lon="6.499521">
        <ele>449.600000</ele>
        <time>2009-07-19T17:11:10Z</time>
      </trkpt>
      <trkpt lat="50.583988" lon="6.499427">
        <ele>449.100000</ele>
        <time>2009-07-19T17:11:19Z</time>
      </trkpt>
      <trkpt lat="50.583974" lon="6.499324">
        <ele>451.500000</ele>
        <time>2009-07-19T17:11:27Z</time>
      </trkpt>
      <trkpt lat="50.583981" lon="6.499263">
        <ele>452.400000</ele>
        <time>2009-07-19T17:11:31Z</time>
      </trkpt>
      <trkpt lat="50.583981" lon="6.499265">
        <ele>452.000000</ele>
        <time>2009-07-19T17:11:31Z</time>
      </trkpt>
      <trkpt lat="50.583979" lon="6.499173">
        <ele>453.400000</ele>
        <time>2009-07-19T17:11:38Z</time>
      </trkpt>
      <trkpt lat="50.583951" lon="6.499063">
        <ele>454.400000</ele>
        <time>2009-07-19T17:11:47Z</time>
      </trkpt>
      <trkpt lat="50.583926" lon="6.498960">
        <ele>455.300000</ele>
        <time>2009-07-19T17:11:56Z</time>
      </trkpt>
      <trkpt lat="50.583918" lon="6.498813">
        <ele>457.200000</ele>
        <time>2009-07-19T17:12:07Z</time>
      </trkpt>
      <trkpt lat="50.583879" lon="6.498645">
        <ele>459.600000</ele>
        <time>2009-07-19T17:12:21Z</time>
      </trkpt>
      <trkpt lat="50.583838" lon="6.498510">
        <ele>461.600000</ele>
        <time>2009-07-19T17:12:32Z</time>
      </trkpt>
      <trkpt lat="50.583821" lon="6.498356">
        <ele>463.500000</ele>
        <time>2009-07-19T17:12:44Z</time>
      </trkpt>
      <trkpt lat="50.583841" lon="6.498278">
        <ele>464.500000</ele>
        <time>2009-07-19T17:12:50Z</time>
      </trkpt>
      <trkpt lat="50.583896" lon="6.498352">
        <ele>465.400000</ele>
        <time>2009-07-19T17:12:59Z</time>
      </trkpt>
      <trkpt lat="50.583947" lon="6.498505">
        <ele>466.900000</ele>
        <time>2009-07-19T17:13:12Z</time>
      </trkpt>
      <trkpt lat="50.584016" lon="6.498635">
        <ele>468.800000</ele>
        <time>2009-07-19T17:13:25Z</time>
      </trkpt>
      <trkpt lat="50.584114" lon="6.498781">
        <ele>470.200000</ele>
        <time>2009-07-19T17:13:41Z</time>
      </trkpt>
      <trkpt lat="50.584154" lon="6.498822">
        <ele>470.700000</ele>
        <time>2009-07-19T17:13:47Z</time>
      </trkpt>
      <trkpt lat="50.584145" lon="6.498828">
        <ele>471.700000</ele>
        <time>2009-07-19T17:13:48Z</time>
      </trkpt>
      <trkpt lat="50.584206" lon="6.498953">
        <ele>471.200000</ele>
        <time>2009-07-19T17:14:00Z</time>
      </trkpt>
      <trkpt lat="50.584256" lon="6.499008">
        <ele>473.600000</ele>
        <time>2009-07-19T17:14:07Z</time>
      </trkpt>
      <trkpt lat="50.584331" lon="6.499074">
        <ele>476.500000</ele>
        <time>2009-07-19T17:14:18Z</time>
      </trkpt>
      <trkpt lat="50.584397" lon="6.499202">
        <ele>478.900000</ele>
        <time>2009-07-19T17:14:30Z</time>
      </trkpt>
      <trkpt lat="50.584520" lon="6.499285">
        <ele>481.300000</ele>
        <time>2009-07-19T17:14:46Z</time>
      </trkpt>
      <trkpt lat="50.584606" lon="6.499377">
        <ele>482.200000</ele>
        <time>2009-07-19T17:14:59Z</time>
      </trkpt>
      <trkpt lat="50.584719" lon="6.499466">
        <ele>484.600000</ele>
        <time>2009-07-19T17:15:14Z</time>
      </trkpt>
      <trkpt lat="50.584806" lon="6.499509">
        <ele>487.500000</ele>
        <time>2009-07-19T17:15:25Z</time>
      </trkpt>
      <trkpt lat="50.584874" lon="6.499527">
        <ele>489.400000</ele>
        <time>2009-07-19T17:15:33Z</time>
      </trkpt>
      <trkpt lat="50.584969" lon="6.499538">
        <ele>491.400000</ele>
        <time>2009-07-19T17:15:44Z</time>
      </trkpt>
      <trkpt lat="50.585060" lon="6.499517">
        <ele>492.300000</ele>
        <time>2009-07-19T17:15:56Z</time>
      </trkpt>
      <trkpt lat="50.585247" lon="6.499503">
        <ele>494.300000</ele>
        <time>2009-07-19T17:16:18Z</time>
      </trkpt>
      <trkpt lat="50.585370" lon="6.499491">
        <ele>496.700000</ele>
        <time>2009-07-19T17:16:33Z</time>
      </trkpt>
      <trkpt lat="50.585378" lon="6.499490">
        <ele>497.100000</ele>
        <time>2009-07-19T17:16:34Z</time>
      </trkpt>
      <trkpt lat="50.585512" lon="6.499495">
        <ele>498.100000</ele>
        <time>2009-07-19T17:16:50Z</time>
      </trkpt>
      <trkpt lat="50.585624" lon="6.499472">
        <ele>500.000000</ele>
        <time>2009-07-19T17:17:03Z</time>
      </trkpt>
      <trkpt lat="50.585751" lon="6.499421">
        <ele>501.500000</ele>
        <time>2009-07-19T17:17:19Z</time>
      </trkpt>
      <trkpt lat="50.585919" lon="6.499398">
        <ele>503.400000</ele>
        <time>2009-07-19T17:17:39Z</time>
      </trkpt>
      <trkpt lat="50.586028" lon="6.499380">
        <ele>505.300000</ele>
        <time>2009-07-19T17:17:52Z</time>
      </trkpt>
      <trkpt lat="50.586139" lon="6.499389">
        <ele>506.300000</ele>
        <time>2009-07-19T17:18:06Z</time>
      </trkpt>
      <trkpt lat="50.586280" lon="6.499351">
        <ele>509.200000</ele>
        <time>2009-07-19T17:18:23Z</time>
      </trkpt>
      <trkpt lat="50.586405" lon="6.499352">
        <ele>511.100000</ele>
        <time>2009-07-19T17:18:38Z</time>
      </trkpt>
      <trkpt lat="50.586490" lon="6.499281">
        <ele>512.500000</ele>
        <time>2009-07-19T17:18:49Z</time>
      </trkpt>
      <trkpt lat="50.586419" lon="6.499179">
        <ele>513.000000</ele>
        <time>2009-07-19T17:19:01Z</time>
      </trkpt>
      <trkpt lat="50.586395" lon="6.499042">
        <ele>513.500000</ele>
        <time>2009-07-19T17:19:12Z</time>
      </trkpt>
      <trkpt lat="50.586441" lon="6.498953">
        <ele>514.400000</ele>
        <time>2009-07-19T17:19:20Z</time>
      </trkpt>
      <trkpt lat="50.586607" lon="6.499049">
        <ele>515.900000</ele>
        <time>2009-07-19T17:19:42Z</time>
      </trkpt>
      <trkpt lat="50.586692" lon="6.499124">
        <ele>517.300000</ele>
        <time>2009-07-19T17:19:53Z</time>
      </trkpt>
      <trkpt lat="50.586732" lon="6.499152">
        <ele>517.800000</ele>
        <time>2009-07-19T17:19:59Z</time>
      </trkpt>
      <trkpt lat="50.586857" lon="6.499206">
        <ele>516.800000</ele>
        <time>2009-07-19T17:20:14Z</time>
      </trkpt>
      <trkpt lat="50.586931" lon="6.499232">
        <ele>520.200000</ele>
        <time>2009-07-19T17:20:23Z</time>
      </trkpt>
      <trkpt lat="50.587032" lon="6.499294">
        <ele>520.700000</ele>
        <time>2009-07-19T17:20:36Z</time>
      </trkpt>
      <trkpt lat="50.587127" lon="6.499386">
        <ele>520.700000</ele>
        <time>2009-07-19T17:20:50Z</time>
      </trkpt>
      <trkpt lat="50.587223" lon="6.499497">
        <ele>521.200000</ele>
        <time>2009-07-19T17:21:04Z</time>
      </trkpt>
      <trkpt lat="50.587295" lon="6.499635">
        <ele>522.100000</ele>
        <time>2009-07-19T17:21:17Z</time>
      </trkpt>
      <trkpt lat="50.587431" lon="6.499671">
        <ele>523.100000</ele>
        <time>2009-07-19T17:21:34Z</time>
      </trkpt>
      <trkpt lat="50.587476" lon="6.499480">
        <ele>523.100000</ele>
        <time>2009-07-19T17:21:49Z</time>
      </trkpt>
      <trkpt lat="50.587466" lon="6.499265">
        <ele>522.600000</ele>
        <time>2009-07-19T17:22:06Z</time>
      </trkpt>
      <trkpt lat="50.587477" lon="6.499191">
        <ele>523.100000</ele>
        <time>2009-07-19T17:22:12Z</time>
      </trkpt>
      <trkpt lat="50.587448" lon="6.498989">
        <ele>523.600000</ele>
        <time>2009-07-19T17:22:27Z</time>
      </trkpt>
      <trkpt lat="50.587400" lon="6.498798">
        <ele>524.500000</ele>
        <time>2009-07-19T17:22:43Z</time>
      </trkpt>
      <trkpt lat="50.587360" lon="6.498643">
        <ele>524.500000</ele>
        <time>2009-07-19T17:22:56Z</time>
      </trkpt>
      <trkpt lat="50.587374" lon="6.498543">
        <ele>524.500000</ele>
        <time>2009-07-19T17:23:04Z</time>
      </trkpt>
      <trkpt lat="50.587372" lon="6.498489">
        <ele>524.500000</ele>
        <time>2009-07-19T17:23:08Z</time>
      </trkpt>
      <trkpt lat="50.587419" lon="6.498311">
        <ele>525.000000</ele>
        <time>2009-07-19T17:23:22Z</time>
      </trkpt>
      <trkpt lat="50.587435" lon="6.498280">
        <ele>525.000000</ele>
        <time>2009-07-19T17:23:25Z</time>
      </trkpt>
      <trkpt lat="50.587456" lon="6.498242">
        <ele>524.500000</ele>
        <time>2009-07-19T17:23:29Z</time>
      </trkpt>
      <trkpt lat="50.587563" lon="6.498041">
        <ele>526.000000</ele>
        <time>2009-07-19T17:23:49Z</time>
      </trkpt>
      <trkpt lat="50.587586" lon="6.497961">
        <ele>525.500000</ele>
        <time>2009-07-19T17:23:56Z</time>
      </trkpt>
      <trkpt lat="50.587589" lon="6.497892">
        <ele>525.000000</ele>
        <time>2009-07-19T17:24:01Z</time>
      </trkpt>
      <trkpt lat="50.587499" lon="6.497787">
        <ele>525.500000</ele>
        <time>2009-07-19T17:24:15Z</time>
      </trkpt>
      <trkpt lat="50.587576" lon="6.497645">
        <ele>526.500000</ele>
        <time>2009-07-19T17:24:29Z</time>
      </trkpt>
      <trkpt lat="50.587645" lon="6.497524">
        <ele>526.900000</ele>
        <time>2009-07-19T17:24:41Z</time>
      </trkpt>
      <trkpt lat="50.587717" lon="6.497373">
        <ele>527.900000</ele>
        <time>2009-07-19T17:24:56Z</time>
      </trkpt>
      <trkpt lat="50.587800" lon="6.497237">
        <ele>528.900000</ele>
        <time>2009-07-19T17:25:10Z</time>
      </trkpt>
      <trkpt lat="50.587906" lon="6.497144">
        <ele>529.800000</ele>
        <time>2009-07-19T17:25:25Z</time>
      </trkpt>
      <trkpt lat="50.587980" lon="6.496989">
        <ele>530.800000</ele>
        <time>2009-07-19T17:25:39Z</time>
      </trkpt>
      <trkpt lat="50.588056" lon="6.496936">
        <ele>531.300000</ele>
        <time>2009-07-19T17:25:49Z</time>
      </trkpt>
      <trkpt lat="50.588159" lon="6.496915">
        <ele>531.700000</ele>
        <time>2009-07-19T17:26:02Z</time>
      </trkpt>
      <trkpt lat="50.588120" lon="6.496795">
        <ele>533.700000</ele>
        <time>2009-07-19T17:26:12Z</time>
      </trkpt>
      <trkpt lat="50.588156" lon="6.496701">
        <ele>534.200000</ele>
        <time>2009-07-19T17:26:20Z</time>
      </trkpt>
      <trkpt lat="50.588157" lon="6.496538">
        <ele>533.700000</ele>
        <time>2009-07-19T17:26:33Z</time>
      </trkpt>
      <trkpt lat="50.588148" lon="6.496445">
        <ele>533.200000</ele>
        <time>2009-07-19T17:26:40Z</time>
      </trkpt>
      <trkpt lat="50.588226" lon="6.496377">
        <ele>531.300000</ele>
        <time>2009-07-19T17:26:50Z</time>
      </trkpt>
      <trkpt lat="50.588136" lon="6.496208">
        <ele>531.300000</ele>
        <time>2009-07-19T17:27:07Z</time>
      </trkpt>
      <trkpt lat="50.588102" lon="6.496113">
        <ele>531.700000</ele>
        <time>2009-07-19T17:27:16Z</time>
      </trkpt>
      <trkpt lat="50.588056" lon="6.496095">
        <ele>531.300000</ele>
        <time>2009-07-19T17:27:21Z</time>
      </trkpt>
      <trkpt lat="50.587973" lon="6.495852">
        <ele>531.700000</ele>
        <time>2009-07-19T17:27:42Z</time>
      </trkpt>
      <trkpt lat="50.587861" lon="6.495636">
        <ele>532.200000</ele>
        <time>2009-07-19T17:28:04Z</time>
      </trkpt>
      <trkpt lat="50.587765" lon="6.495466">
        <ele>532.200000</ele>
        <time>2009-07-19T17:28:21Z</time>
      </trkpt>
      <trkpt lat="50.587719" lon="6.495354">
        <ele>532.200000</ele>
        <time>2009-07-19T17:28:31Z</time>
      </trkpt>
      <trkpt lat="50.587619" lon="6.495182">
        <ele>531.700000</ele>
        <time>2009-07-19T17:28:49Z</time>
      </trkpt>
      <trkpt lat="50.587602" lon="6.495104">
        <ele>531.700000</ele>
        <time>2009-07-19T17:28:55Z</time>
      </trkpt>
      <trkpt lat="50.587604" lon="6.495036">
        <ele>532.200000</ele>
        <time>2009-07-19T17:29:00Z</time>
      </trkpt>
      <trkpt lat="50.587622" lon="6.494863">
        <ele>531.700000</ele>
        <time>2009-07-19T17:29:14Z</time>
      </trkpt>
      <trkpt lat="50.587664" lon="6.494802">
        <ele>531.700000</ele>
        <time>2009-07-19T17:29:20Z</time>
      </trkpt>
      <trkpt lat="50.587818" lon="6.494678">
        <ele>530.800000</ele>
        <time>2009-07-19T17:29:41Z</time>
      </trkpt>
      <trkpt lat="50.587971" lon="6.494535">
        <ele>530.300000</ele>
        <time>2009-07-19T17:30:02Z</time>
      </trkpt>
      <trkpt lat="50.588118" lon="6.494322">
        <ele>527.400000</ele>
        <time>2009-07-19T17:30:26Z</time>
      </trkpt>
      <trkpt lat="50.588240" lon="6.494097">
        <ele>526.000000</ele>
        <time>2009-07-19T17:30:49Z</time>
      </trkpt>
      <trkpt lat="50.588395" lon="6.493899">
        <ele>523.600000</ele>
        <time>2009-07-19T17:31:13Z</time>
      </trkpt>
      <trkpt lat="50.588581" lon="6.493683">
        <ele>522.600000</ele>
        <time>2009-07-19T17:31:41Z</time>
      </trkpt>
      <trkpt lat="50.588622" lon="6.493595">
        <ele>521.700000</ele>
        <time>2009-07-19T17:31:49Z</time>
      </trkpt>
      <trkpt lat="50.588629" lon="6.493597">
        <ele>520.700000</ele>
        <time>2009-07-19T17:31:50Z</time>
      </trkpt>
      <trkpt lat="50.588673" lon="6.493565">
        <ele>520.700000</ele>
        <time>2009-07-19T17:31:56Z</time>
      </trkpt>
      <trkpt lat="50.588907" lon="6.493271">
        <ele>520.200000</ele>
        <time>2009-07-19T17:32:31Z</time>
      </trkpt>
      <trkpt lat="50.589145" lon="6.493096">
        <ele>519.200000</ele>
        <time>2009-07-19T17:33:03Z</time>
      </trkpt>
      <trkpt lat="50.589383" lon="6.492971">
        <ele>519.700000</ele>
        <time>2009-07-19T17:33:33Z</time>
      </trkpt>
      <trkpt lat="50.589647" lon="6.492910">
        <ele>519.700000</ele>
        <time>2009-07-19T17:34:05Z</time>
      </trkpt>
      <trkpt lat="50.589933" lon="6.492913">
        <ele>519.700000</ele>
        <time>2009-07-19T17:34:39Z</time>
      </trkpt>
      <trkpt lat="50.590093" lon="6.492933">
        <ele>518.800000</ele>
        <time>2009-07-19T17:34:59Z</time>
      </trkpt>
      <trkpt lat="50.590330" lon="6.492803">
        <ele>517.300000</ele>
        <time>2009-07-19T17:35:29Z</time>
      </trkpt>
      <trkpt lat="50.590378" lon="6.492747">
        <ele>516.800000</ele>
        <time>2009-07-19T17:35:36Z</time>
      </trkpt>
      <trkpt lat="50.590509" lon="6.492414">
        <ele>516.400000</ele>
        <time>2009-07-19T17:36:06Z</time>
      </trkpt>
      <trkpt lat="50.590702" lon="6.492167">
        <ele>516.800000</ele>
        <time>2009-07-19T17:36:36Z</time>
      </trkpt>
      <trkpt lat="50.590941" lon="6.491916">
        <ele>516.400000</ele>
        <time>2009-07-19T17:37:10Z</time>
      </trkpt>
      <trkpt lat="50.591160" lon="6.491625">
        <ele>516.400000</ele>
        <time>2009-07-19T17:37:44Z</time>
      </trkpt>
      <trkpt lat="50.591303" lon="6.491361">
        <ele>516.400000</ele>
        <time>2009-07-19T17:38:11Z</time>
      </trkpt>
      <trkpt lat="50.591396" lon="6.491096">
        <ele>516.400000</ele>
        <time>2009-07-19T17:38:34Z</time>
      </trkpt>
      <trkpt lat="50.591682" lon="6.490958">
        <ele>515.400000</ele>
        <time>2009-07-19T17:39:10Z</time>
      </trkpt>
      <trkpt lat="50.591969" lon="6.490632">
        <ele>513.500000</ele>
        <time>2009-07-19T17:39:52Z</time>
      </trkpt>
      <trkpt lat="50.592208" lon="6.490353">
        <ele>510.600000</ele>
        <time>2009-07-19T17:40:28Z</time>
      </trkpt>
      <trkpt lat="50.592396" lon="6.490079">
        <ele>510.100000</ele>
        <time>2009-07-19T17:40:58Z</time>
      </trkpt>
      <trkpt lat="50.592479" lon="6.489894">
        <ele>507.200000</ele>
        <time>2009-07-19T17:41:16Z</time>
      </trkpt>
      <trkpt lat="50.592597" lon="6.489487">
        <ele>505.800000</ele>
        <time>2009-07-19T17:41:50Z</time>
      </trkpt>
      <trkpt lat="50.592638" lon="6.489316">
        <ele>504.800000</ele>
        <time>2009-07-19T17:42:04Z</time>
      </trkpt>
      <trkpt lat="50.592670" lon="6.489150">
        <ele>503.400000</ele>
        <time>2009-07-19T17:42:17Z</time>
      </trkpt>
      <trkpt lat="50.592672" lon="6.489113">
        <ele>503.400000</ele>
        <time>2009-07-19T17:42:20Z</time>
      </trkpt>
      <trkpt lat="50.592675" lon="6.489041">
        <ele>502.900000</ele>
        <time>2009-07-19T17:42:25Z</time>
      </trkpt>
      <trkpt lat="50.592641" lon="6.488675">
        <ele>500.000000</ele>
        <time>2009-07-19T17:42:53Z</time>
      </trkpt>
      <trkpt lat="50.592663" lon="6.488246">
        <ele>498.100000</ele>
        <time>2009-07-19T17:43:26Z</time>
      </trkpt>
      <trkpt lat="50.592654" lon="6.487927">
        <ele>497.100000</ele>
        <time>2009-07-19T17:43:50Z</time>
      </trkpt>
      <trkpt lat="50.592659" lon="6.487903">
        <ele>496.700000</ele>
        <time>2009-07-19T17:43:52Z</time>
      </trkpt>
      <trkpt lat="50.592654" lon="6.487758">
        <ele>496.700000</ele>
        <time>2009-07-19T17:44:03Z</time>
      </trkpt>
      <trkpt lat="50.592626" lon="6.487632">
        <ele>496.200000</ele>
        <time>2009-07-19T17:44:14Z</time>
      </trkpt>
      <trkpt lat="50.592654" lon="6.487617">
        <ele>496.700000</ele>
        <time>2009-07-19T17:44:17Z</time>
      </trkpt>
      <trkpt lat="50.592635" lon="6.487485">
        <ele>495.700000</ele>
        <time>2009-07-19T17:44:28Z</time>
      </trkpt>
      <trkpt lat="50.592566" lon="6.487181">
        <ele>495.200000</ele>
        <time>2009-07-19T17:44:52Z</time>
      </trkpt>
      <trkpt lat="50.592505" lon="6.486819">
        <ele>494.300000</ele>
        <time>2009-07-19T17:45:21Z</time>
      </trkpt>
      <trkpt lat="50.592421" lon="6.486447">
        <ele>492.800000</ele>
        <time>2009-07-19T17:45:51Z</time>
      </trkpt>
      <trkpt lat="50.592396" lon="6.486363">
        <ele>492.300000</ele>
        <time>2009-07-19T17:45:58Z</time>
      </trkpt>
      <trkpt lat="50.592324" lon="6.486066">
        <ele>492.300000</ele>
        <time>2009-07-19T17:46:22Z</time>
      </trkpt>
      <trkpt lat="50.592237" lon="6.485726">
        <ele>490.900000</ele>
        <time>2009-07-19T17:46:50Z</time>
      </trkpt>
      <trkpt lat="50.592157" lon="6.485423">
        <ele>489.400000</ele>
        <time>2009-07-19T17:47:15Z</time>
      </trkpt>
      <trkpt lat="50.592088" lon="6.485094">
        <ele>488.500000</ele>
        <time>2009-07-19T17:47:41Z</time>
      </trkpt>
      <trkpt lat="50.592041" lon="6.484774">
        <ele>488.500000</ele>
        <time>2009-07-19T17:48:06Z</time>
      </trkpt>
      <trkpt lat="50.591959" lon="6.484540">
        <ele>488.000000</ele>
        <time>2009-07-19T17:48:26Z</time>
      </trkpt>
      <trkpt lat="50.591843" lon="6.484297">
        <ele>487.500000</ele>
        <time>2009-07-19T17:48:50Z</time>
      </trkpt>
      <trkpt lat="50.591743" lon="6.484079">
        <ele>486.600000</ele>
        <time>2009-07-19T17:49:10Z</time>
      </trkpt>
      <trkpt lat="50.591664" lon="6.483912">
        <ele>486.100000</ele>
        <time>2009-07-19T17:49:26Z</time>
      </trkpt>
      <trkpt lat="50.591513" lon="6.483711">
        <ele>485.100000</ele>
        <time>2009-07-19T17:49:50Z</time>
      </trkpt>
      <trkpt lat="50.591370" lon="6.483564">
        <ele>483.700000</ele>
        <time>2009-07-19T17:50:10Z</time>
      </trkpt>
      <trkpt lat="50.591207" lon="6.483388">
        <ele>483.200000</ele>
        <time>2009-07-19T17:50:34Z</time>
      </trkpt>
      <trkpt lat="50.591066" lon="6.483228">
        <ele>481.800000</ele>
        <time>2009-07-19T17:50:55Z</time>
      </trkpt>
      <trkpt lat="50.590935" lon="6.483054">
        <ele>480.800000</ele>
        <time>2009-07-19T17:51:15Z</time>
      </trkpt>
      <trkpt lat="50.590872" lon="6.482990">
        <ele>479.800000</ele>
        <time>2009-07-19T17:51:24Z</time>
      </trkpt>
      <trkpt lat="50.590742" lon="6.482859">
        <ele>478.900000</ele>
        <time>2009-07-19T17:51:43Z</time>
      </trkpt>
      <trkpt lat="50.590675" lon="6.482787">
        <ele>478.400000</ele>
        <time>2009-07-19T17:51:52Z</time>
      </trkpt>
      <trkpt lat="50.590654" lon="6.482768">
        <ele>478.400000</ele>
        <time>2009-07-19T17:51:55Z</time>
      </trkpt>
      <trkpt lat="50.590597" lon="6.482709">
        <ele>477.400000</ele>
        <time>2009-07-19T17:52:04Z</time>
      </trkpt>
      <trkpt lat="50.590432" lon="6.482507">
        <ele>477.400000</ele>
        <time>2009-07-19T17:52:29Z</time>
      </trkpt>
      <trkpt lat="50.590307" lon="6.482368">
        <ele>477.400000</ele>
        <time>2009-07-19T17:52:47Z</time>
      </trkpt>
      <trkpt lat="50.590124" lon="6.482168">
        <ele>477.400000</ele>
        <time>2009-07-19T17:53:14Z</time>
      </trkpt>
      <trkpt lat="50.589944" lon="6.482022">
        <ele>477.900000</ele>
        <time>2009-07-19T17:53:38Z</time>
      </trkpt>
      <trkpt lat="50.589842" lon="6.481934">
        <ele>477.900000</ele>
        <time>2009-07-19T17:53:52Z</time>
      </trkpt>
      <trkpt lat="50.589728" lon="6.481867">
        <ele>477.900000</ele>
        <time>2009-07-19T17:54:06Z</time>
      </trkpt>
      <trkpt lat="50.589575" lon="6.481724">
        <ele>478.400000</ele>
        <time>2009-07-19T17:54:28Z</time>
      </trkpt>
      <trkpt lat="50.589434" lon="6.481572">
        <ele>479.400000</ele>
        <time>2009-07-19T17:54:48Z</time>
      </trkpt>
      <trkpt lat="50.589310" lon="6.481399">
        <ele>479.400000</ele>
        <time>2009-07-19T17:55:08Z</time>
      </trkpt>
      <trkpt lat="50.589175" lon="6.481221">
        <ele>480.800000</ele>
        <time>2009-07-19T17:55:29Z</time>
      </trkpt>
      <trkpt lat="50.589122" lon="6.481144">
        <ele>481.300000</ele>
        <time>2009-07-19T17:55:38Z</time>
      </trkpt>
      <trkpt lat="50.589057" lon="6.480982">
        <ele>481.300000</ele>
        <time>2009-07-19T17:55:52Z</time>
      </trkpt>
      <trkpt lat="50.589044" lon="6.480836">
        <ele>482.700000</ele>
        <time>2009-07-19T17:56:04Z</time>
      </trkpt>
      <trkpt lat="50.589024" lon="6.480694">
        <ele>483.700000</ele>
        <time>2009-07-19T17:56:15Z</time>
      </trkpt>
      <trkpt lat="50.588894" lon="6.480522">
        <ele>484.600000</ele>
        <time>2009-07-19T17:56:35Z</time>
      </trkpt>
      <trkpt lat="50.588764" lon="6.480318">
        <ele>485.100000</ele>
        <time>2009-07-19T17:56:57Z</time>
      </trkpt>
      <trkpt lat="50.588625" lon="6.480087">
        <ele>486.600000</ele>
        <time>2009-07-19T17:57:21Z</time>
      </trkpt>
      <trkpt lat="50.588513" lon="6.479857">
        <ele>487.000000</ele>
        <time>2009-07-19T17:57:43Z</time>
      </trkpt>
      <trkpt lat="50.588441" lon="6.479683">
        <ele>488.000000</ele>
        <time>2009-07-19T17:57:59Z</time>
      </trkpt>
      <trkpt lat="50.588407" lon="6.479589">
        <ele>487.500000</ele>
        <time>2009-07-19T17:58:07Z</time>
      </trkpt>
      <trkpt lat="50.588385" lon="6.479500">
        <ele>487.500000</ele>
        <time>2009-07-19T17:58:15Z</time>
      </trkpt>
      <trkpt lat="50.588295" lon="6.479201">
        <ele>488.000000</ele>
        <time>2009-07-19T17:58:40Z</time>
      </trkpt>
      <trkpt lat="50.588210" lon="6.478939">
        <ele>488.500000</ele>
        <time>2009-07-19T17:59:02Z</time>
      </trkpt>
      <trkpt lat="50.588141" lon="6.478679">
        <ele>488.500000</ele>
        <time>2009-07-19T17:59:24Z</time>
      </trkpt>
      <trkpt lat="50.588059" lon="6.478395">
        <ele>489.000000</ele>
        <time>2009-07-19T17:59:48Z</time>
      </trkpt>
      <trkpt lat="50.588032" lon="6.478281">
        <ele>489.400000</ele>
        <time>2009-07-19T17:59:57Z</time>
      </trkpt>
      <trkpt lat="50.587953" lon="6.478012">
        <ele>490.400000</ele>
        <time>2009-07-19T18:00:19Z</time>
      </trkpt>
      <trkpt lat="50.587880" lon="6.477790">
        <ele>491.900000</ele>
        <time>2009-07-19T18:00:38Z</time>
      </trkpt>
      <trkpt lat="50.587799" lon="6.477593">
        <ele>492.800000</ele>
        <time>2009-07-19T18:00:56Z</time>
      </trkpt>
      <trkpt lat="50.587728" lon="6.477373">
        <ele>493.800000</ele>
        <time>2009-07-19T18:01:15Z</time>
      </trkpt>
      <trkpt lat="50.587683" lon="6.477124">
        <ele>494.300000</ele>
        <time>2009-07-19T18:01:35Z</time>
      </trkpt>
      <trkpt lat="50.587593" lon="6.476882">
        <ele>494.700000</ele>
        <time>2009-07-19T18:01:56Z</time>
      </trkpt>
      <trkpt lat="50.587488" lon="6.476671">
        <ele>495.200000</ele>
        <time>2009-07-19T18:02:17Z</time>
      </trkpt>
      <trkpt lat="50.587431" lon="6.476590">
        <ele>495.200000</ele>
        <time>2009-07-19T18:02:26Z</time>
      </trkpt>
      <trkpt lat="50.587310" lon="6.476397">
        <ele>494.700000</ele>
        <time>2009-07-19T18:02:46Z</time>
      </trkpt>
      <trkpt lat="50.587280" lon="6.476358">
        <ele>494.700000</ele>
        <time>2009-07-19T18:02:51Z</time>
      </trkpt>
      <trkpt lat="50.587117" lon="6.476121">
        <ele>494.300000</ele>
        <time>2009-07-19T18:03:18Z</time>
      </trkpt>
      <trkpt lat="50.587023" lon="6.475939">
        <ele>493.800000</ele>
        <time>2009-07-19T18:03:36Z</time>
      </trkpt>
      <trkpt lat="50.586867" lon="6.475750">
        <ele>494.300000</ele>
        <time>2009-07-19T18:03:59Z</time>
      </trkpt>
      <trkpt lat="50.586698" lon="6.475609">
        <ele>494.700000</ele>
        <time>2009-07-19T18:04:22Z</time>
      </trkpt>
      <trkpt lat="50.586513" lon="6.475541">
        <ele>494.300000</ele>
        <time>2009-07-19T18:04:45Z</time>
      </trkpt>
      <trkpt lat="50.586345" lon="6.475547">
        <ele>494.700000</ele>
        <time>2009-07-19T18:05:05Z</time>
      </trkpt>
      <trkpt lat="50.586125" lon="6.475735">
        <ele>494.300000</ele>
        <time>2009-07-19T18:05:35Z</time>
      </trkpt>
      <trkpt lat="50.586039" lon="6.476042">
        <ele>495.200000</ele>
        <time>2009-07-19T18:06:01Z</time>
      </trkpt>
      <trkpt lat="50.585998" lon="6.476450">
        <ele>495.200000</ele>
        <time>2009-07-19T18:06:32Z</time>
      </trkpt>
      <trkpt lat="50.585963" lon="6.476764">
        <ele>495.200000</ele>
        <time>2009-07-19T18:06:56Z</time>
      </trkpt>
      <trkpt lat="50.585969" lon="6.477075">
        <ele>495.200000</ele>
        <time>2009-07-19T18:07:20Z</time>
      </trkpt>
      <trkpt lat="50.585982" lon="6.477343">
        <ele>495.700000</ele>
        <time>2009-07-19T18:07:40Z</time>
      </trkpt>
      <trkpt lat="50.586038" lon="6.477661">
        <ele>495.700000</ele>
        <time>2009-07-19T18:08:06Z</time>
      </trkpt>
      <trkpt lat="50.586121" lon="6.477977">
        <ele>494.700000</ele>
        <time>2009-07-19T18:08:32Z</time>
      </trkpt>
      <trkpt lat="50.586143" lon="6.478119">
        <ele>495.200000</ele>
        <time>2009-07-19T18:08:43Z</time>
      </trkpt>
      <trkpt lat="50.586152" lon="6.478205">
        <ele>495.200000</ele>
        <time>2009-07-19T18:08:49Z</time>
      </trkpt>
      <trkpt lat="50.586109" lon="6.478588">
        <ele>495.700000</ele>
        <time>2009-07-19T18:09:19Z</time>
      </trkpt>
      <trkpt lat="50.586002" lon="6.478965">
        <ele>496.200000</ele>
        <time>2009-07-19T18:09:50Z</time>
      </trkpt>
      <trkpt lat="50.585799" lon="6.479374">
        <ele>496.200000</ele>
        <time>2009-07-19T18:10:30Z</time>
      </trkpt>
      <trkpt lat="50.585646" lon="6.479747">
        <ele>496.700000</ele>
        <time>2009-07-19T18:11:04Z</time>
      </trkpt>
      <trkpt lat="50.585653" lon="6.480045">
        <ele>495.700000</ele>
        <time>2009-07-19T18:11:26Z</time>
      </trkpt>
      <trkpt lat="50.585704" lon="6.480226">
        <ele>496.200000</ele>
        <time>2009-07-19T18:11:42Z</time>
      </trkpt>
      <trkpt lat="50.585703" lon="6.480248">
        <ele>495.200000</ele>
        <time>2009-07-19T18:11:43Z</time>
      </trkpt>
      <trkpt lat="50.585732" lon="6.480345">
        <ele>495.200000</ele>
        <time>2009-07-19T18:11:51Z</time>
      </trkpt>
      <trkpt lat="50.585734" lon="6.480344">
        <ele>495.200000</ele>
        <time>2009-07-19T18:11:52Z</time>
      </trkpt>
      <trkpt lat="50.585755" lon="6.480356">
        <ele>495.200000</ele>
        <time>2009-07-19T18:11:54Z</time>
      </trkpt>
      <trkpt lat="50.585851" lon="6.480567">
        <ele>494.700000</ele>
        <time>2009-07-19T18:12:14Z</time>
      </trkpt>
      <trkpt lat="50.585901" lon="6.480636">
        <ele>494.700000</ele>
        <time>2009-07-19T18:12:22Z</time>
      </trkpt>
      <trkpt lat="50.586016" lon="6.480816">
        <ele>494.300000</ele>
        <time>2009-07-19T18:12:41Z</time>
      </trkpt>
      <trkpt lat="50.586160" lon="6.481001">
        <ele>494.300000</ele>
        <time>2009-07-19T18:13:04Z</time>
      </trkpt>
      <trkpt lat="50.586172" lon="6.481012">
        <ele>494.300000</ele>
        <time>2009-07-19T18:13:05Z</time>
      </trkpt>
      <trkpt lat="50.586309" lon="6.481209">
        <ele>493.300000</ele>
        <time>2009-07-19T18:13:28Z</time>
      </trkpt>
      <trkpt lat="50.586439" lon="6.481346">
        <ele>493.300000</ele>
        <time>2009-07-19T18:13:46Z</time>
      </trkpt>
      <trkpt lat="50.586525" lon="6.481435">
        <ele>492.300000</ele>
        <time>2009-07-19T18:13:59Z</time>
      </trkpt>
      <trkpt lat="50.586690" lon="6.481650">
        <ele>491.400000</ele>
        <time>2009-07-19T18:14:24Z</time>
      </trkpt>
      <trkpt lat="50.586826" lon="6.481771">
        <ele>490.900000</ele>
        <time>2009-07-19T18:14:43Z</time>
      </trkpt>
      <trkpt lat="50.586967" lon="6.481950">
        <ele>489.900000</ele>
        <time>2009-07-19T18:15:05Z</time>
      </trkpt>
      <trkpt lat="50.587002" lon="6.482009">
        <ele>489.400000</ele>
        <time>2009-07-19T18:15:11Z</time>
      </trkpt>
      <trkpt lat="50.587053" lon="6.482069">
        <ele>489.400000</ele>
        <time>2009-07-19T18:15:19Z</time>
      </trkpt>
      <trkpt lat="50.587205" lon="6.482258">
        <ele>489.000000</ele>
        <time>2009-07-19T18:15:42Z</time>
      </trkpt>
      <trkpt lat="50.587357" lon="6.482485">
        <ele>488.000000</ele>
        <time>2009-07-19T18:16:07Z</time>
      </trkpt>
      <trkpt lat="50.587486" lon="6.482717">
        <ele>487.500000</ele>
        <time>2009-07-19T18:16:30Z</time>
      </trkpt>
      <trkpt lat="50.587577" lon="6.482953">
        <ele>487.000000</ele>
        <time>2009-07-19T18:16:51Z</time>
      </trkpt>
      <trkpt lat="50.587631" lon="6.483087">
        <ele>486.600000</ele>
        <time>2009-07-19T18:17:04Z</time>
      </trkpt>
      <trkpt lat="50.587656" lon="6.483161">
        <ele>486.100000</ele>
        <time>2009-07-19T18:17:10Z</time>
      </trkpt>
      <trkpt lat="50.587730" lon="6.483404">
        <ele>485.600000</ele>
        <time>2009-07-19T18:17:30Z</time>
      </trkpt>
      <trkpt lat="50.587768" lon="6.483559">
        <ele>485.600000</ele>
        <time>2009-07-19T18:17:43Z</time>
      </trkpt>
      <trkpt lat="50.587806" lon="6.483635">
        <ele>485.600000</ele>
        <time>2009-07-19T18:17:50Z</time>
      </trkpt>
      <trkpt lat="50.587862" lon="6.483802">
        <ele>485.600000</ele>
        <time>2009-07-19T18:18:05Z</time>
      </trkpt>
      <trkpt lat="50.587850" lon="6.483952">
        <ele>485.600000</ele>
        <time>2009-07-19T18:18:16Z</time>
      </trkpt>
      <trkpt lat="50.587839" lon="6.483975">
        <ele>485.600000</ele>
        <time>2009-07-19T18:18:19Z</time>
      </trkpt>
      <trkpt lat="50.587773" lon="6.484041">
        <ele>485.600000</ele>
        <time>2009-07-19T18:18:28Z</time>
      </trkpt>
      <trkpt lat="50.587625" lon="6.484006">
        <ele>485.100000</ele>
        <time>2009-07-19T18:18:46Z</time>
      </trkpt>
      <trkpt lat="50.587561" lon="6.483969">
        <ele>485.100000</ele>
        <time>2009-07-19T18:18:54Z</time>
      </trkpt>
      <trkpt lat="50.587377" lon="6.483811">
        <ele>486.100000</ele>
        <time>2009-07-19T18:19:19Z</time>
      </trkpt>
      <trkpt lat="50.587186" lon="6.483722">
        <ele>487.000000</ele>
        <time>2009-07-19T18:19:43Z</time>
      </trkpt>
      <trkpt lat="50.587021" lon="6.483648">
        <ele>487.500000</ele>
        <time>2009-07-19T18:20:04Z</time>
      </trkpt>
      <trkpt lat="50.586827" lon="6.483568">
        <ele>488.000000</ele>
        <time>2009-07-19T18:20:28Z</time>
      </trkpt>
      <trkpt lat="50.586603" lon="6.483479">
        <ele>489.400000</ele>
        <time>2009-07-19T18:20:55Z</time>
      </trkpt>
      <trkpt lat="50.586404" lon="6.483401">
        <ele>489.400000</ele>
        <time>2009-07-19T18:21:20Z</time>
      </trkpt>
      <trkpt lat="50.586166" lon="6.483303">
        <ele>490.400000</ele>
        <time>2009-07-19T18:21:49Z</time>
      </trkpt>
      <trkpt lat="50.585950" lon="6.483331">
        <ele>491.400000</ele>
        <time>2009-07-19T18:22:15Z</time>
      </trkpt>
      <trkpt lat="50.585720" lon="6.483423">
        <ele>492.300000</ele>
        <time>2009-07-19T18:22:44Z</time>
      </trkpt>
      <trkpt lat="50.585514" lon="6.483478">
        <ele>492.300000</ele>
        <time>2009-07-19T18:23:09Z</time>
      </trkpt>
      <trkpt lat="50.585252" lon="6.483621">
        <ele>494.300000</ele>
        <time>2009-07-19T18:23:42Z</time>
      </trkpt>
      <trkpt lat="50.585000" lon="6.483860">
        <ele>495.200000</ele>
        <time>2009-07-19T18:24:17Z</time>
      </trkpt>
      <trkpt lat="50.584775" lon="6.484161">
        <ele>495.200000</ele>
        <time>2009-07-19T18:24:53Z</time>
      </trkpt>
      <trkpt lat="50.584629" lon="6.484458">
        <ele>495.200000</ele>
        <time>2009-07-19T18:25:21Z</time>
      </trkpt>
      <trkpt lat="50.584501" lon="6.484770">
        <ele>495.200000</ele>
        <time>2009-07-19T18:25:50Z</time>
      </trkpt>
      <trkpt lat="50.584420" lon="6.485044">
        <ele>495.700000</ele>
        <time>2009-07-19T18:26:13Z</time>
      </trkpt>
      <trkpt lat="50.584309" lon="6.485294">
        <ele>496.700000</ele>
        <time>2009-07-19T18:26:36Z</time>
      </trkpt>
      <trkpt lat="50.584153" lon="6.485493">
        <ele>497.100000</ele>
        <time>2009-07-19T18:27:00Z</time>
      </trkpt>
      <trkpt lat="50.584029" lon="6.485721">
        <ele>498.100000</ele>
        <time>2009-07-19T18:27:23Z</time>
      </trkpt>
      <trkpt lat="50.584029" lon="6.485721">
        <ele>498.100000</ele>
        <time>2009-07-19T18:27:23Z</time>
      </trkpt>
      <trkpt lat="50.584030" lon="6.485712">
        <ele>496.200000</ele>
        <time>2009-07-19T18:27:24Z</time>
      </trkpt>
      <trkpt lat="50.584197" lon="6.485964">
        <ele>495.200000</ele>
        <time>2009-07-19T18:27:51Z</time>
      </trkpt>
      <trkpt lat="50.584346" lon="6.486225">
        <ele>494.300000</ele>
        <time>2009-07-19T18:28:18Z</time>
      </trkpt>
      <trkpt lat="50.584487" lon="6.486541">
        <ele>493.800000</ele>
        <time>2009-07-19T18:28:47Z</time>
      </trkpt>
      <trkpt lat="50.584618" lon="6.486882">
        <ele>492.800000</ele>
        <time>2009-07-19T18:29:18Z</time>
      </trkpt>
      <trkpt lat="50.584716" lon="6.487147">
        <ele>492.800000</ele>
        <time>2009-07-19T18:29:41Z</time>
      </trkpt>
      <trkpt lat="50.584841" lon="6.487444">
        <ele>492.800000</ele>
        <time>2009-07-19T18:30:08Z</time>
      </trkpt>
      <trkpt lat="50.585011" lon="6.487741">
        <ele>492.300000</ele>
        <time>2009-07-19T18:30:39Z</time>
      </trkpt>
      <trkpt lat="50.585120" lon="6.487892">
        <ele>492.300000</ele>
        <time>2009-07-19T18:30:56Z</time>
      </trkpt>
      <trkpt lat="50.585182" lon="6.488043">
        <ele>490.900000</ele>
        <time>2009-07-19T18:31:10Z</time>
      </trkpt>
      <trkpt lat="50.585350" lon="6.488175">
        <ele>491.400000</ele>
        <time>2009-07-19T18:31:32Z</time>
      </trkpt>
      <trkpt lat="50.585517" lon="6.488327">
        <ele>490.900000</ele>
        <time>2009-07-19T18:31:55Z</time>
      </trkpt>
      <trkpt lat="50.585637" lon="6.488445">
        <ele>490.900000</ele>
        <time>2009-07-19T18:32:12Z</time>
      </trkpt>
      <trkpt lat="50.585660" lon="6.488489">
        <ele>490.900000</ele>
        <time>2009-07-19T18:32:17Z</time>
      </trkpt>
      <trkpt lat="50.585871" lon="6.488655">
        <ele>489.400000</ele>
        <time>2009-07-19T18:32:45Z</time>
      </trkpt>
      <trkpt lat="50.586062" lon="6.488849">
        <ele>489.400000</ele>
        <time>2009-07-19T18:33:12Z</time>
      </trkpt>
      <trkpt lat="50.586226" lon="6.488953">
        <ele>489.400000</ele>
        <time>2009-07-19T18:33:34Z</time>
      </trkpt>
      <trkpt lat="50.586368" lon="6.489092">
        <ele>489.400000</ele>
        <time>2009-07-19T18:33:54Z</time>
      </trkpt>
      <trkpt lat="50.586498" lon="6.489300">
        <ele>489.000000</ele>
        <time>2009-07-19T18:34:16Z</time>
      </trkpt>
      <trkpt lat="50.586541" lon="6.489419">
        <ele>489.000000</ele>
        <time>2009-07-19T18:34:26Z</time>
      </trkpt>
      <trkpt lat="50.586559" lon="6.489503">
        <ele>489.000000</ele>
        <time>2009-07-19T18:34:33Z</time>
      </trkpt>
      <trkpt lat="50.586593" lon="6.489695">
        <ele>489.000000</ele>
        <time>2009-07-19T18:34:48Z</time>
      </trkpt>
      <trkpt lat="50.586676" lon="6.489998">
        <ele>488.500000</ele>
        <time>2009-07-19T18:35:13Z</time>
      </trkpt>
      <trkpt lat="50.586764" lon="6.490274">
        <ele>488.000000</ele>
        <time>2009-07-19T18:35:37Z</time>
      </trkpt>
      <trkpt lat="50.586818" lon="6.490505">
        <ele>487.500000</ele>
        <time>2009-07-19T18:35:56Z</time>
      </trkpt>
      <trkpt lat="50.586664" lon="6.490286">
        <ele>484.600000</ele>
        <time>2009-07-19T18:36:20Z</time>
      </trkpt>
      <trkpt lat="50.586546" lon="6.489991">
        <ele>481.800000</ele>
        <time>2009-07-19T18:36:47Z</time>
      </trkpt>
      <trkpt lat="50.586446" lon="6.489780">
        <ele>478.900000</ele>
        <time>2009-07-19T18:37:07Z</time>
      </trkpt>
      <trkpt lat="50.586438" lon="6.489764">
        <ele>478.400000</ele>
        <time>2009-07-19T18:37:09Z</time>
      </trkpt>
      <trkpt lat="50.586347" lon="6.489588">
        <ele>475.500000</ele>
        <time>2009-07-19T18:37:26Z</time>
      </trkpt>
      <trkpt lat="50.586302" lon="6.489499">
        <ele>474.500000</ele>
        <time>2009-07-19T18:37:34Z</time>
      </trkpt>
      <trkpt lat="50.586251" lon="6.489390">
        <ele>473.100000</ele>
        <time>2009-07-19T18:37:45Z</time>
      </trkpt>
      <trkpt lat="50.586204" lon="6.489366">
        <ele>471.200000</ele>
        <time>2009-07-19T18:37:51Z</time>
      </trkpt>
      <trkpt lat="50.586109" lon="6.489282">
        <ele>469.700000</ele>
        <time>2009-07-19T18:38:04Z</time>
      </trkpt>
      <trkpt lat="50.586023" lon="6.489258">
        <ele>467.300000</ele>
        <time>2009-07-19T18:38:14Z</time>
      </trkpt>
      <trkpt lat="50.585926" lon="6.489240">
        <ele>464.000000</ele>
        <time>2009-07-19T18:38:26Z</time>
      </trkpt>
      <trkpt lat="50.585832" lon="6.489239">
        <ele>461.600000</ele>
        <time>2009-07-19T18:38:37Z</time>
      </trkpt>
      <trkpt lat="50.585709" lon="6.489270">
        <ele>459.200000</ele>
        <time>2009-07-19T18:38:52Z</time>
      </trkpt>
      <trkpt lat="50.585599" lon="6.489295">
        <ele>457.200000</ele>
        <time>2009-07-19T18:39:05Z</time>
      </trkpt>
      <trkpt lat="50.585574" lon="6.489302">
        <ele>456.300000</ele>
        <time>2009-07-19T18:39:09Z</time>
      </trkpt>
      <trkpt lat="50.585490" lon="6.489345">
        <ele>454.400000</ele>
        <time>2009-07-19T18:39:19Z</time>
      </trkpt>
      <trkpt lat="50.585379" lon="6.489339">
        <ele>452.900000</ele>
        <time>2009-07-19T18:39:32Z</time>
      </trkpt>
      <trkpt lat="50.585261" lon="6.489338">
        <ele>452.400000</ele>
        <time>2009-07-19T18:39:47Z</time>
      </trkpt>
      <trkpt lat="50.585094" lon="6.489320">
        <ele>449.600000</ele>
        <time>2009-07-19T18:40:07Z</time>
      </trkpt>
      <trkpt lat="50.584942" lon="6.489284">
        <ele>448.100000</ele>
        <time>2009-07-19T18:40:25Z</time>
      </trkpt>
      <trkpt lat="50.584829" lon="6.489235">
        <ele>446.700000</ele>
        <time>2009-07-19T18:40:39Z</time>
      </trkpt>
      <trkpt lat="50.584712" lon="6.489199">
        <ele>445.200000</ele>
        <time>2009-07-19T18:40:53Z</time>
      </trkpt>
      <trkpt lat="50.584690" lon="6.489193">
        <ele>444.300000</ele>
        <time>2009-07-19T18:40:56Z</time>
      </trkpt>
      <trkpt lat="50.584659" lon="6.489180">
        <ele>443.300000</ele>
        <time>2009-07-19T18:41:00Z</time>
      </trkpt>
      <trkpt lat="50.584634" lon="6.489163">
        <ele>442.800000</ele>
        <time>2009-07-19T18:41:03Z</time>
      </trkpt>
      <trkpt lat="50.584555" lon="6.489123">
        <ele>440.900000</ele>
        <time>2009-07-19T18:41:13Z</time>
      </trkpt>
      <trkpt lat="50.584513" lon="6.489102">
        <ele>439.500000</ele>
        <time>2009-07-19T18:41:18Z</time>
      </trkpt>
      <trkpt lat="50.584459" lon="6.489059">
        <ele>438.500000</ele>
        <time>2009-07-19T18:41:26Z</time>
      </trkpt>
      <trkpt lat="50.584323" lon="6.488918">
        <ele>437.500000</ele>
        <time>2009-07-19T18:41:45Z</time>
      </trkpt>
      <trkpt lat="50.584256" lon="6.488803">
        <ele>436.100000</ele>
        <time>2009-07-19T18:41:57Z</time>
      </trkpt>
      <trkpt lat="50.584154" lon="6.488687">
        <ele>434.200000</ele>
        <time>2009-07-19T18:42:12Z</time>
      </trkpt>
      <trkpt lat="50.584143" lon="6.488659">
        <ele>433.700000</ele>
        <time>2009-07-19T18:42:15Z</time>
      </trkpt>
      <trkpt lat="50.584074" lon="6.488586">
        <ele>432.300000</ele>
        <time>2009-07-19T18:42:25Z</time>
      </trkpt>
      <trkpt lat="50.584055" lon="6.488561">
        <ele>431.300000</ele>
        <time>2009-07-19T18:42:28Z</time>
      </trkpt>
      <trkpt lat="50.584028" lon="6.488517">
        <ele>430.800000</ele>
        <time>2009-07-19T18:42:32Z</time>
      </trkpt>
      <trkpt lat="50.583935" lon="6.488375">
        <ele>428.400000</ele>
        <time>2009-07-19T18:42:48Z</time>
      </trkpt>
      <trkpt lat="50.583877" lon="6.488323">
        <ele>427.000000</ele>
        <time>2009-07-19T18:42:56Z</time>
      </trkpt>
      <trkpt lat="50.583780" lon="6.488170">
        <ele>424.100000</ele>
        <time>2009-07-19T18:43:12Z</time>
      </trkpt>
      <trkpt lat="50.583771" lon="6.488157">
        <ele>424.100000</ele>
        <time>2009-07-19T18:43:14Z</time>
      </trkpt>
      <trkpt lat="50.583741" lon="6.488110">
        <ele>422.200000</ele>
        <time>2009-07-19T18:43:19Z</time>
      </trkpt>
      <trkpt lat="50.583728" lon="6.488099">
        <ele>422.200000</ele>
        <time>2009-07-19T18:43:21Z</time>
      </trkpt>
      <trkpt lat="50.583665" lon="6.488014">
        <ele>421.200000</ele>
        <time>2009-07-19T18:43:31Z</time>
      </trkpt>
      <trkpt lat="50.583616" lon="6.487954">
        <ele>420.700000</ele>
        <time>2009-07-19T18:43:38Z</time>
      </trkpt>
      <trkpt lat="50.583486" lon="6.487787">
        <ele>418.300000</ele>
        <time>2009-07-19T18:43:58Z</time>
      </trkpt>
      <trkpt lat="50.583352" lon="6.487627">
        <ele>416.900000</ele>
        <time>2009-07-19T18:44:18Z</time>
      </trkpt>
      <trkpt lat="50.583278" lon="6.487579">
        <ele>414.900000</ele>
        <time>2009-07-19T18:44:28Z</time>
      </trkpt>
      <trkpt lat="50.583254" lon="6.487558">
        <ele>414.500000</ele>
        <time>2009-07-19T18:44:31Z</time>
      </trkpt>
      <trkpt lat="50.583203" lon="6.487534">
        <ele>414.500000</ele>
        <time>2009-07-19T18:44:37Z</time>
      </trkpt>
      <trkpt lat="50.583073" lon="6.487468">
        <ele>410.100000</ele>
        <time>2009-07-19T18:44:54Z</time>
      </trkpt>
      <trkpt lat="50.583060" lon="6.487468">
        <ele>414.000000</ele>
        <time>2009-07-19T18:44:55Z</time>
      </trkpt>
      <trkpt lat="50.582951" lon="6.487422">
        <ele>410.600000</ele>
        <time>2009-07-19T18:45:09Z</time>
      </trkpt>
      <trkpt lat="50.582789" lon="6.487372">
        <ele>409.200000</ele>
        <time>2009-07-19T18:45:29Z</time>
      </trkpt>
      <trkpt lat="50.582623" lon="6.487326">
        <ele>408.200000</ele>
        <time>2009-07-19T18:45:49Z</time>
      </trkpt>
      <trkpt lat="50.582444" lon="6.487284">
        <ele>407.700000</ele>
        <time>2009-07-19T18:46:11Z</time>
      </trkpt>
      <trkpt lat="50.582242" lon="6.487293">
        <ele>406.300000</ele>
        <time>2009-07-19T18:46:35Z</time>
      </trkpt>
      <trkpt lat="50.582068" lon="6.487347">
        <ele>403.900000</ele>
        <time>2009-07-19T18:46:56Z</time>
      </trkpt>
      <trkpt lat="50.581926" lon="6.487322">
        <ele>400.500000</ele>
        <time>2009-07-19T18:47:13Z</time>
      </trkpt>
      <trkpt lat="50.581843" lon="6.487342">
        <ele>399.100000</ele>
        <time>2009-07-19T18:47:23Z</time>
      </trkpt>
      <trkpt lat="50.581775" lon="6.487346">
        <ele>397.200000</ele>
        <time>2009-07-19T18:47:32Z</time>
      </trkpt>
      <trkpt lat="50.581650" lon="6.487362">
        <ele>394.800000</ele>
        <time>2009-07-19T18:47:47Z</time>
      </trkpt>
      <trkpt lat="50.581550" lon="6.487380">
        <ele>391.900000</ele>
        <time>2009-07-19T18:47:59Z</time>
      </trkpt>
      <trkpt lat="50.581541" lon="6.487378">
        <ele>390.900000</ele>
        <time>2009-07-19T18:48:00Z</time>
      </trkpt>
      <trkpt lat="50.581368" lon="6.487332">
        <ele>389.500000</ele>
        <time>2009-07-19T18:48:21Z</time>
      </trkpt>
      <trkpt lat="50.581348" lon="6.487330">
        <ele>389.000000</ele>
        <time>2009-07-19T18:48:23Z</time>
      </trkpt>
      <trkpt lat="50.581210" lon="6.487219">
        <ele>386.600000</ele>
        <time>2009-07-19T18:48:42Z</time>
      </trkpt>
      <trkpt lat="50.581177" lon="6.487203">
        <ele>385.600000</ele>
        <time>2009-07-19T18:48:46Z</time>
      </trkpt>
      <trkpt lat="50.581103" lon="6.487143">
        <ele>383.200000</ele>
        <time>2009-07-19T18:48:56Z</time>
      </trkpt>
      <trkpt lat="50.581064" lon="6.487112">
        <ele>382.700000</ele>
        <time>2009-07-19T18:49:01Z</time>
      </trkpt>
      <trkpt lat="50.580893" lon="6.486950">
        <ele>380.300000</ele>
        <time>2009-07-19T18:49:25Z</time>
      </trkpt>
      <trkpt lat="50.580879" lon="6.486941">
        <ele>379.900000</ele>
        <time>2009-07-19T18:49:27Z</time>
      </trkpt>
      <trkpt lat="50.580776" lon="6.486874">
        <ele>377.000000</ele>
        <time>2009-07-19T18:49:40Z</time>
      </trkpt>
      <trkpt lat="50.580749" lon="6.486943">
        <ele>374.600000</ele>
        <time>2009-07-19T18:49:46Z</time>
      </trkpt>
      <trkpt lat="50.580725" lon="6.487021">
        <ele>372.600000</ele>
        <time>2009-07-19T18:49:53Z</time>
      </trkpt>
      <trkpt lat="50.580659" lon="6.487065">
        <ele>370.200000</ele>
        <time>2009-07-19T18:50:02Z</time>
      </trkpt>
      <trkpt lat="50.580585" lon="6.487130">
        <ele>366.900000</ele>
        <time>2009-07-19T18:50:12Z</time>
      </trkpt>
      <trkpt lat="50.580452" lon="6.487176">
        <ele>363.500000</ele>
        <time>2009-07-19T18:50:28Z</time>
      </trkpt>
      <trkpt lat="50.580304" lon="6.487199">
        <ele>360.200000</ele>
        <time>2009-07-19T18:50:46Z</time>
      </trkpt>
      <trkpt lat="50.580113" lon="6.487227">
        <ele>358.700000</ele>
        <time>2009-07-19T18:51:09Z</time>
      </trkpt>
      <trkpt lat="50.580064" lon="6.487269">
        <ele>357.700000</ele>
        <time>2009-07-19T18:51:16Z</time>
      </trkpt>
      <trkpt lat="50.579941" lon="6.487240">
        <ele>356.800000</ele>
        <time>2009-07-19T18:51:30Z</time>
      </trkpt>
      <trkpt lat="50.579904" lon="6.487164">
        <ele>355.800000</ele>
        <time>2009-07-19T18:51:38Z</time>
      </trkpt>
      <trkpt lat="50.579803" lon="6.487129">
        <ele>353.900000</ele>
        <time>2009-07-19T18:51:50Z</time>
      </trkpt>
      <trkpt lat="50.579753" lon="6.487157">
        <ele>352.000000</ele>
        <time>2009-07-19T18:51:57Z</time>
      </trkpt>
      <trkpt lat="50.579623" lon="6.487023">
        <ele>350.100000</ele>
        <time>2009-07-19T18:52:15Z</time>
      </trkpt>
      <trkpt lat="50.579557" lon="6.486900">
        <ele>349.600000</ele>
        <time>2009-07-19T18:52:27Z</time>
      </trkpt>
      <trkpt lat="50.579539" lon="6.486829">
        <ele>349.100000</ele>
        <time>2009-07-19T18:52:33Z</time>
      </trkpt>
      <trkpt lat="50.579537" lon="6.486761">
        <ele>349.100000</ele>
        <time>2009-07-19T18:52:38Z</time>
      </trkpt>
      <trkpt lat="50.579515" lon="6.486703">
        <ele>347.200000</ele>
        <time>2009-07-19T18:52:44Z</time>
      </trkpt>
      <trkpt lat="50.579454" lon="6.486439">
        <ele>345.300000</ele>
        <time>2009-07-19T18:53:05Z</time>
      </trkpt>
      <trkpt lat="50.579402" lon="6.486196">
        <ele>342.800000</ele>
        <time>2009-07-19T18:53:25Z</time>
      </trkpt>
      <trkpt lat="50.579369" lon="6.486196">
        <ele>341.400000</ele>
        <time>2009-07-19T18:53:28Z</time>
      </trkpt>
      <trkpt lat="50.579364" lon="6.486349">
        <ele>342.400000</ele>
        <time>2009-07-19T18:53:40Z</time>
      </trkpt>
      <trkpt lat="50.579347" lon="6.486717">
        <ele>340.400000</ele>
        <time>2009-07-19T18:54:08Z</time>
      </trkpt>
      <trkpt lat="50.579298" lon="6.487048">
        <ele>340.000000</ele>
        <time>2009-07-19T18:54:34Z</time>
      </trkpt>
      <trkpt lat="50.579268" lon="6.487331">
        <ele>340.000000</ele>
        <time>2009-07-19T18:54:56Z</time>
      </trkpt>
      <trkpt lat="50.579369" lon="6.487439">
        <ele>341.400000</ele>
        <time>2009-07-19T18:55:11Z</time>
      </trkpt>
      <trkpt lat="50.579462" lon="6.487537">
        <ele>344.300000</ele>
        <time>2009-07-19T18:55:24Z</time>
      </trkpt>
      <trkpt lat="50.579563" lon="6.487626">
        <ele>346.200000</ele>
        <time>2009-07-19T18:55:38Z</time>
      </trkpt>
      <trkpt lat="50.579651" lon="6.487716">
        <ele>347.700000</ele>
        <time>2009-07-19T18:55:50Z</time>
      </trkpt>
      <trkpt lat="50.579742" lon="6.487782">
        <ele>349.600000</ele>
        <time>2009-07-19T18:56:02Z</time>
      </trkpt>
      <trkpt lat="50.579772" lon="6.487816">
        <ele>349.600000</ele>
        <time>2009-07-19T18:56:07Z</time>
      </trkpt>
      <trkpt lat="50.579731" lon="6.487881">
        <ele>349.600000</ele>
        <time>2009-07-19T18:56:14Z</time>
      </trkpt>
      <trkpt lat="50.579730" lon="6.487890">
        <ele>354.400000</ele>
        <time>2009-07-19T18:56:15Z</time>
      </trkpt>
      <trkpt lat="50.579671" lon="6.487912">
        <ele>350.100000</ele>
        <time>2009-07-19T18:56:22Z</time>
      </trkpt>
      <trkpt lat="50.579491" lon="6.487891">
        <ele>351.000000</ele>
        <time>2009-07-19T18:56:43Z</time>
      </trkpt>
      <trkpt lat="50.579416" lon="6.488069">
        <ele>350.100000</ele>
        <time>2009-07-19T18:57:00Z</time>
      </trkpt>
      <trkpt lat="50.579385" lon="6.488302">
        <ele>349.600000</ele>
        <time>2009-07-19T18:57:18Z</time>
      </trkpt>
      <trkpt lat="50.579345" lon="6.488540">
        <ele>350.500000</ele>
        <time>2009-07-19T18:57:36Z</time>
      </trkpt>
      <trkpt lat="50.579327" lon="6.488834">
        <ele>351.000000</ele>
        <time>2009-07-19T18:57:59Z</time>
      </trkpt>
      <trkpt lat="50.579289" lon="6.489053">
        <ele>351.500000</ele>
        <time>2009-07-19T18:58:16Z</time>
      </trkpt>
      <trkpt lat="50.579273" lon="6.489230">
        <ele>352.900000</ele>
        <time>2009-07-19T18:58:30Z</time>
      </trkpt>
      <trkpt lat="50.579243" lon="6.489410">
        <ele>353.900000</ele>
        <time>2009-07-19T18:58:44Z</time>
      </trkpt>
      <trkpt lat="50.579196" lon="6.489630">
        <ele>353.900000</ele>
        <time>2009-07-19T18:59:02Z</time>
      </trkpt>
      <trkpt lat="50.579135" lon="6.489852">
        <ele>353.900000</ele>
        <time>2009-07-19T18:59:20Z</time>
      </trkpt>
      <trkpt lat="50.579109" lon="6.490004">
        <ele>353.400000</ele>
        <time>2009-07-19T18:59:32Z</time>
      </trkpt>
      <trkpt lat="50.579078" lon="6.490172">
        <ele>352.500000</ele>
        <time>2009-07-19T18:59:45Z</time>
      </trkpt>
      <trkpt lat="50.579018" lon="6.490395">
        <ele>350.500000</ele>
        <time>2009-07-19T19:00:04Z</time>
      </trkpt>
      <trkpt lat="50.578967" lon="6.490597">
        <ele>350.500000</ele>
        <time>2009-07-19T19:00:20Z</time>
      </trkpt>
      <trkpt lat="50.578902" lon="6.490799">
        <ele>351.000000</ele>
        <time>2009-07-19T19:00:38Z</time>
      </trkpt>
      <trkpt lat="50.578865" lon="6.490982">
        <ele>351.000000</ele>
        <time>2009-07-19T19:00:52Z</time>
      </trkpt>
      <trkpt lat="50.578828" lon="6.491143">
        <ele>351.000000</ele>
        <time>2009-07-19T19:01:05Z</time>
      </trkpt>
      <trkpt lat="50.578809" lon="6.491400">
        <ele>351.500000</ele>
        <time>2009-07-19T19:01:25Z</time>
      </trkpt>
      <trkpt lat="50.578761" lon="6.491640">
        <ele>352.000000</ele>
        <time>2009-07-19T19:01:44Z</time>
      </trkpt>
      <trkpt lat="50.578722" lon="6.491856">
        <ele>351.500000</ele>
        <time>2009-07-19T19:02:01Z</time>
      </trkpt>
      <trkpt lat="50.578674" lon="6.492103">
        <ele>351.500000</ele>
        <time>2009-07-19T19:02:21Z</time>
      </trkpt>
      <trkpt lat="50.578659" lon="6.492294">
        <ele>350.100000</ele>
        <time>2009-07-19T19:02:36Z</time>
      </trkpt>
      <trkpt lat="50.578622" lon="6.492586">
        <ele>349.100000</ele>
        <time>2009-07-19T19:02:58Z</time>
      </trkpt>
      <trkpt lat="50.578614" lon="6.492739">
        <ele>348.600000</ele>
        <time>2009-07-19T19:03:10Z</time>
      </trkpt>
      <trkpt lat="50.578600" lon="6.492994">
        <ele>348.100000</ele>
        <time>2009-07-19T19:03:29Z</time>
      </trkpt>
      <trkpt lat="50.578580" lon="6.493280">
        <ele>347.700000</ele>
        <time>2009-07-19T19:03:51Z</time>
      </trkpt>
      <trkpt lat="50.578546" lon="6.493603">
        <ele>347.200000</ele>
        <time>2009-07-19T19:04:16Z</time>
      </trkpt>
      <trkpt lat="50.578508" lon="6.493846">
        <ele>346.700000</ele>
        <time>2009-07-19T19:04:35Z</time>
      </trkpt>
      <trkpt lat="50.578449" lon="6.494098">
        <ele>344.800000</ele>
        <time>2009-07-19T19:04:56Z</time>
      </trkpt>
      <trkpt lat="50.578374" lon="6.494352">
        <ele>343.300000</ele>
        <time>2009-07-19T19:05:17Z</time>
      </trkpt>
      <trkpt lat="50.578267" lon="6.494616">
        <ele>342.800000</ele>
        <time>2009-07-19T19:05:41Z</time>
      </trkpt>
      <trkpt lat="50.578170" lon="6.494860">
        <ele>342.800000</ele>
        <time>2009-07-19T19:06:03Z</time>
      </trkpt>
      <trkpt lat="50.578096" lon="6.495070">
        <ele>342.400000</ele>
        <time>2009-07-19T19:06:21Z</time>
      </trkpt>
      <trkpt lat="50.578007" lon="6.495278">
        <ele>342.400000</ele>
        <time>2009-07-19T19:06:40Z</time>
      </trkpt>
      <trkpt lat="50.577892" lon="6.495507">
        <ele>342.400000</ele>
        <time>2009-07-19T19:07:03Z</time>
      </trkpt>
      <trkpt lat="50.577841" lon="6.495586">
        <ele>342.400000</ele>
        <time>2009-07-19T19:07:11Z</time>
      </trkpt>
      <trkpt lat="50.577724" lon="6.495784">
        <ele>343.300000</ele>
        <time>2009-07-19T19:07:32Z</time>
      </trkpt>
      <trkpt lat="50.577714" lon="6.495800">
        <ele>343.300000</ele>
        <time>2009-07-19T19:07:33Z</time>
      </trkpt>
      <trkpt lat="50.577554" lon="6.496068">
        <ele>343.300000</ele>
        <time>2009-07-19T19:08:01Z</time>
      </trkpt>
      <trkpt lat="50.577397" lon="6.496261">
        <ele>342.400000</ele>
        <time>2009-07-19T19:08:25Z</time>
      </trkpt>
      <trkpt lat="50.577304" lon="6.496421">
        <ele>341.900000</ele>
        <time>2009-07-19T19:08:42Z</time>
      </trkpt>
      <trkpt lat="50.577200" lon="6.496561">
        <ele>341.400000</ele>
        <time>2009-07-19T19:08:58Z</time>
      </trkpt>
      <trkpt lat="50.576998" lon="6.496672">
        <ele>340.900000</ele>
        <time>2009-07-19T19:09:24Z</time>
      </trkpt>
      <trkpt lat="50.576930" lon="6.496671">
        <ele>339.500000</ele>
        <time>2009-07-19T19:09:32Z</time>
      </trkpt>
      <trkpt lat="50.576764" lon="6.496523">
        <ele>337.600000</ele>
        <time>2009-07-19T19:09:55Z</time>
      </trkpt>
      <trkpt lat="50.576655" lon="6.496431">
        <ele>337.100000</ele>
        <time>2009-07-19T19:10:10Z</time>
      </trkpt>
      <trkpt lat="50.576504" lon="6.496372">
        <ele>336.600000</ele>
        <time>2009-07-19T19:10:28Z</time>
      </trkpt>
      <trkpt lat="50.576298" lon="6.496314">
        <ele>337.100000</ele>
        <time>2009-07-19T19:10:53Z</time>
      </trkpt>
      <trkpt lat="50.576286" lon="6.496340">
        <ele>337.100000</ele>
        <time>2009-07-19T19:10:56Z</time>
      </trkpt>
      <trkpt lat="50.576306" lon="6.496390">
        <ele>337.100000</ele>
        <time>2009-07-19T19:11:00Z</time>
      </trkpt>
      <trkpt lat="50.576305" lon="6.496410">
        <ele>337.100000</ele>
        <time>2009-07-19T19:11:02Z</time>
      </trkpt>
      <trkpt lat="50.576269" lon="6.496484">
        <ele>337.100000</ele>
        <time>2009-07-19T19:11:09Z</time>
      </trkpt>
      <trkpt lat="50.576115" lon="6.496656">
        <ele>338.500000</ele>
        <time>2009-07-19T19:11:32Z</time>
      </trkpt>
      <trkpt lat="50.575939" lon="6.496666">
        <ele>338.500000</ele>
        <time>2009-07-19T19:11:53Z</time>
      </trkpt>
      <trkpt lat="50.575633" lon="6.496496">
        <ele>338.500000</ele>
        <time>2009-07-19T19:12:32Z</time>
      </trkpt>
      <trkpt lat="50.575520" lon="6.496669">
        <ele>338.500000</ele>
        <time>2009-07-19T19:12:51Z</time>
      </trkpt>
      <trkpt lat="50.575318" lon="6.496932">
        <ele>339.500000</ele>
        <time>2009-07-19T19:13:22Z</time>
      </trkpt>
      <trkpt lat="50.575144" lon="6.497170">
        <ele>339.500000</ele>
        <time>2009-07-19T19:13:50Z</time>
      </trkpt>
      <trkpt lat="50.574910" lon="6.497427">
        <ele>340.000000</ele>
        <time>2009-07-19T19:14:24Z</time>
      </trkpt>
      <trkpt lat="50.574852" lon="6.497477">
        <ele>340.000000</ele>
        <time>2009-07-19T19:14:32Z</time>
      </trkpt>
      <trkpt lat="50.574766" lon="6.497458">
        <ele>340.400000</ele>
        <time>2009-07-19T19:14:42Z</time>
      </trkpt>
      <trkpt lat="50.574720" lon="6.497610">
        <ele>339.500000</ele>
        <time>2009-07-19T19:14:55Z</time>
      </trkpt>
      <trkpt lat="50.574796" lon="6.497848">
        <ele>339.000000</ele>
        <time>2009-07-19T19:15:15Z</time>
      </trkpt>
      <trkpt lat="50.574813" lon="6.497858">
        <ele>340.000000</ele>
        <time>2009-07-19T19:15:17Z</time>
      </trkpt>
    </trkseg>
  </trk>

</gpx>
